Time;durP1;ratioP1;P1;durP2;ratioP2;P2;SDS_P1;SDS_P2;PMS_P1;PMS_P2;Temp;Humidity;BMP_temperature;BMP_pressure;BME280_temperature;BME280_humidity;BME280_pressure;Samples;Min_cycle;Max_cycle;Signal;HPM_P1;HPM_P2
2021/07/06 00:00:52;;;;;;;7.10;2.08;;;;;;;12.53;84.98;99309.22;4972034;28;20483;-81
2021/07/06 00:03:18;;;;;;;6.38;1.83;;;;;;;12.56;84.93;99323.28;4976255;28;20030;-81
2021/07/06 00:05:43;;;;;;;4.85;1.58;;;;;;;12.45;84.82;99319.47;4960061;28;20030;-79
2021/07/06 00:08:09;;;;;;;4.68;2.10;;;;;;;12.45;84.71;99322.16;4993306;28;20044;-81
2021/07/06 00:10:36;;;;;;;5.22;2.08;;;;;;;12.45;85.04;99322.97;4982795;28;20024;-81
2021/07/06 00:13:01;;;;;;;6.07;2.20;;;;;;;12.40;85.01;99332.78;4980497;28;20479;-81
2021/07/06 00:15:27;;;;;;;5.03;1.63;;;;;;;12.38;85.31;99337.56;4972716;28;20112;-81
2021/07/06 00:17:53;;;;;;;9.95;2.65;;;;;;;12.37;85.07;99334.06;4994594;28;20023;-82
2021/07/06 00:20:20;;;;;;;5.97;1.98;;;;;;;12.35;85.38;99333.44;5000281;28;20034;-82
2021/07/06 00:22:45;;;;;;;5.40;1.75;;;;;;;12.40;85.54;99328.22;4984397;28;20133;-81
2021/07/06 00:25:11;;;;;;;7.45;2.65;;;;;;;12.16;85.40;99297.56;4979194;28;20476;-80
2021/07/06 00:27:37;;;;;;;6.25;1.60;;;;;;;12.24;85.56;99310.75;4978956;28;20026;-82
2021/07/06 00:30:04;;;;;;;6.22;2.50;;;;;;;12.45;85.50;99335.63;4974193;28;20423;-80
2021/07/06 00:32:30;;;;;;;5.95;1.90;;;;;;;12.43;85.27;99321.56;4964437;28;20513;-82
2021/07/06 00:34:55;;;;;;;7.22;2.30;;;;;;;12.46;84.89;99323.81;4970718;28;20031;-81
2021/07/06 00:37:20;;;;;;;5.07;1.80;;;;;;;12.51;85.30;99343.66;4967312;28;20427;-81
2021/07/06 00:39:46;;;;;;;6.03;1.95;;;;;;;12.38;84.83;99319.53;4975907;28;20364;-81
2021/07/06 00:42:12;;;;;;;7.18;1.85;;;;;;;12.29;85.61;99324.38;4986366;28;20026;-81
2021/07/06 00:44:38;;;;;;;4.90;1.90;;;;;;;12.41;85.53;99331.72;4977068;28;20018;-80
2021/07/06 00:47:04;;;;;;;7.43;1.80;;;;;;;12.40;85.83;99319.31;4986860;28;20030;-81
2021/07/06 00:49:30;;;;;;;8.32;3.40;;;;;;;12.44;85.61;99326.75;4965689;28;20514;-81
2021/07/06 00:51:56;;;;;;;9.32;2.15;;;;;;;12.40;85.87;99314.75;4982244;28;20041;-81
2021/07/06 00:54:21;;;;;;;6.82;1.75;;;;;;;12.37;86.17;99311.69;4978899;28;20027;-80
2021/07/06 00:56:47;;;;;;;8.88;2.22;;;;;;;12.36;86.37;99304.63;4953071;28;20503;-82
2021/07/06 01:05:15;;;;;;;5.18;1.65;;;;;;;12.41;86.04;99302.94;4987738;28;20068;-82
2021/07/06 01:07:41;;;;;;;5.35;1.90;;;;;;;12.40;86.14;99300.44;4993225;28;20034;-82
2021/07/06 01:10:08;;;;;;;7.95;2.28;;;;;;;12.35;86.34;99292.19;4985442;28;20081;-79
2021/07/06 01:12:34;;;;;;;8.00;2.10;;;;;;;12.35;86.61;99290.31;4997226;28;20040;-81
2021/07/06 01:15:06;;;;;;;5.78;1.80;;;;;;;12.40;86.65;99289.66;4991742;28;20026;-80
2021/07/06 01:17:32;;;;;;;6.07;1.77;;;;;;;12.36;86.82;99289.28;5005708;28;20478;-82
2021/07/06 01:19:59;;;;;;;10.00;2.75;;;;;;;12.40;86.82;99279.69;4992556;28;20531;-79
2021/07/06 01:22:29;;;;;;;5.22;2.60;;;;;;;12.47;86.62;99285.84;4978278;28;20062;-79
2021/07/06 01:24:55;;;;;;;5.90;2.00;;;;;;;12.46;86.67;99284.22;5010935;28;20082;-80
2021/07/06 01:27:21;;;;;;;5.90;1.65;;;;;;;12.45;86.73;99285.25;5012698;28;20052;-80
2021/07/06 01:29:47;;;;;;;6.40;2.60;;;;;;;12.39;87.45;99277.25;4997591;28;20041;-80
2021/07/06 01:32:12;;;;;;;6.05;1.88;;;;;;;12.37;87.31;99274.75;4995757;28;20026;-81
2021/07/06 01:34:37;;;;;;;5.53;2.00;;;;;;;12.38;87.60;99275.56;4994554;28;20101;-80
2021/07/06 01:37:03;;;;;;;5.13;1.83;;;;;;;12.35;87.56;99268.75;4994449;28;20040;-81
2021/07/06 01:39:29;;;;;;;5.00;2.00;;;;;;;12.39;87.95;99280.75;5009893;28;20029;-81
2021/07/06 01:41:55;;;;;;;11.43;2.38;;;;;;;12.37;87.87;99272.06;4993178;28;20060;-81
2021/07/06 01:44:25;;;;;;;6.35;2.40;;;;;;;12.46;88.14;99277.97;4991948;28;20044;-80
2021/07/06 01:46:52;;;;;;;7.10;2.05;;;;;;;12.42;87.68;99283.00;4981315;28;20358;-80
2021/07/06 01:49:18;;;;;;;9.02;2.47;;;;;;;12.44;88.39;99280.09;5009592;28;20040;-81
2021/07/06 01:51:45;;;;;;;4.80;2.10;;;;;;;12.42;88.49;99274.09;4978780;28;20113;-81
2021/07/06 01:54:11;;;;;;;6.13;2.38;;;;;;;12.40;88.32;99278.88;4996283;28;20029;-81
2021/07/06 01:56:45;;;;;;;5.60;2.15;;;;;;;12.35;88.99;99276.03;5000977;28;20041;-80
2021/07/06 01:59:12;;;;;;;8.85;3.25;;;;;;;12.29;88.78;99273.19;4998981;28;20036;-81
2021/07/06 02:01:38;;;;;;;8.73;2.47;;;;;;;12.32;88.76;99272.72;5004909;28;20034;-81
2021/07/06 02:04:05;;;;;;;8.85;2.25;;;;;;;12.30;88.89;99269.44;5012614;28;20489;-80
2021/07/06 02:06:31;;;;;;;6.45;2.15;;;;;;;12.29;89.10;99262.41;4983207;28;20109;-80
2021/07/06 02:08:57;;;;;;;9.52;2.22;;;;;;;12.28;89.25;99260.75;5000534;28;20107;-83
2021/07/06 02:11:23;;;;;;;10.32;2.40;;;;;;;12.27;89.30;99260.97;4995835;28;20033;-80
2021/07/06 02:13:49;;;;;;;6.13;2.25;;;;;;;12.33;89.75;99276.25;4994399;28;20486;-82
2021/07/06 02:16:15;;;;;;;7.50;2.55;;;;;;;12.32;89.65;99263.81;4995100;28;20073;-81
2021/07/06 02:18:41;;;;;;;9.75;2.40;;;;;;;12.32;89.84;99256.56;5012886;28;20042;-82
2021/07/06 02:21:06;;;;;;;5.78;2.22;;;;;;;12.38;89.62;99262.91;4997449;28;20774;-81
2021/07/06 02:23:31;;;;;;;8.20;2.70;;;;;;;12.37;89.92;99258.59;4992051;28;20048;-81
2021/07/06 02:25:59;;;;;;;8.10;2.30;;;;;;;12.37;90.19;99268.53;5000713;28;20029;-82
2021/07/06 02:28:24;;;;;;;7.22;2.50;;;;;;;12.30;90.23;99264.06;4984656;28;20033;-81
2021/07/06 02:30:50;;;;;;;6.38;2.15;;;;;;;12.34;90.56;99263.59;4985480;28;20048;-81
2021/07/06 02:33:16;;;;;;;9.35;2.13;;;;;;;12.32;90.17;99258.44;5013137;28;20520;-82
2021/07/06 02:35:42;;;;;;;12.13;3.00;;;;;;;12.30;90.38;99261.38;4999730;28;20059;-82
2021/07/06 02:38:08;;;;;;;9.63;2.17;;;;;;;12.31;90.88;99254.91;4994707;28;20038;-82
2021/07/06 02:40:34;;;;;;;13.25;2.60;;;;;;;12.30;90.99;99249.75;4989566;28;20038;-82
2021/07/06 02:43:00;;;;;;;8.65;2.40;;;;;;;12.36;91.17;99258.78;4994136;28;20026;-82
2021/07/06 02:45:27;;;;;;;7.18;2.45;;;;;;;12.29;91.20;99240.84;5000094;28;20517;-82
2021/07/06 02:47:53;;;;;;;7.30;2.40;;;;;;;12.26;91.27;99240.47;4994135;28;20026;-82
2021/07/06 02:50:20;;;;;;;9.32;2.20;;;;;;;12.35;91.39;99249.06;4999509;28;20033;-82
2021/07/06 02:52:46;;;;;;;8.48;2.78;;;;;;;12.35;91.30;99243.69;5017982;28;20520;-82
2021/07/06 02:55:12;;;;;;;8.95;2.40;;;;;;;12.25;91.32;99230.72;5008792;28;20022;-82
2021/07/06 02:57:39;;;;;;;6.15;2.05;;;;;;;12.25;91.33;99234.25;5001329;28;20025;-82
2021/07/06 03:00:15;;;;;;;8.82;2.40;;;;;;;12.29;91.51;99238.13;4996253;28;20093;-82
2021/07/06 03:02:45;;;;;;;4.43;1.73;;;;;;;12.24;91.32;99227.22;4999022;28;20100;-82
2021/07/06 03:05:12;;;;;;;6.05;2.13;;;;;;;12.20;91.56;99223.34;4981875;28;20095;-82
2021/07/06 03:07:39;;;;;;;10.10;2.35;;;;;;;12.26;91.15;99229.69;4994491;28;20025;-82
2021/07/06 03:10:15;;;;;;;9.40;2.13;;;;;;;12.23;91.18;99232.84;4999561;28;20030;-82
2021/07/06 03:12:42;;;;;;;6.93;1.98;;;;;;;12.14;91.17;99221.50;4992824;28;20088;-82
2021/07/06 03:15:11;;;;;;;4.90;1.73;;;;;;;12.16;91.71;99230.19;4985478;28;20041;-81
2021/07/06 03:17:37;;;;;;;5.50;1.80;;;;;;;12.12;91.90;99220.09;4995261;28;20089;-82
2021/07/06 03:20:04;;;;;;;8.93;1.70;;;;;;;12.13;91.94;99225.25;4999335;28;20492;-82
2021/07/06 03:22:30;;;;;;;11.48;2.85;;;;;;;12.10;91.93;99223.03;5013488;28;20030;-82
2021/07/06 03:24:55;;;;;;;5.15;1.75;;;;;;;12.05;92.00;99212.09;5012093;28;20398;-82
2021/07/06 03:27:22;;;;;;;6.65;1.77;;;;;;;12.06;92.23;99225.31;4996755;28;20040;-82
2021/07/06 03:29:47;;;;;;;6.03;1.98;;;;;;;12.04;92.01;99213.13;4983555;28;20037;-81
2021/07/06 03:32:12;;;;;;;3.58;1.55;;;;;;;12.06;92.37;99206.47;4999269;28;20034;-82
2021/07/06 03:34:39;;;;;;;4.05;1.90;;;;;;;12.11;92.57;99213.88;4995615;28;20025;-82
2021/07/06 03:37:08;;;;;;;6.13;1.95;;;;;;;12.07;92.38;99213.50;4998285;28;20029;-82
2021/07/06 03:39:40;;;;;;;7.20;1.70;;;;;;;12.06;92.51;99202.94;4996600;28;20022;-81
2021/07/06 03:42:08;;;;;;;5.75;1.58;;;;;;;12.07;92.50;99201.91;4993627;28;20044;-82
2021/07/06 03:44:35;;;;;;;4.45;1.27;;;;;;;12.10;92.48;99199.59;4990602;28;20022;-82
2021/07/06 03:47:01;;;;;;;5.05;2.10;;;;;;;12.11;92.63;99203.09;4997720;28;20025;-82
2021/07/06 03:49:26;;;;;;;6.68;1.88;;;;;;;12.03;92.87;99192.63;4982408;28;20101;-82
2021/07/06 03:51:52;;;;;;;3.10;1.30;;;;;;;12.04;92.87;99203.19;5007700;28;20505;-82
2021/07/06 03:54:17;;;;;;;3.55;1.42;;;;;;;12.01;92.64;99205.47;5019984;28;20030;-82
2021/07/06 03:56:43;;;;;;;6.00;1.50;;;;;;;12.02;93.26;99202.56;5000465;28;20026;-82
2021/07/06 03:59:08;;;;;;;3.83;1.88;;;;;;;11.94;93.11;99193.97;4994099;28;20120;-82
2021/07/06 04:01:34;;;;;;;6.63;1.50;;;;;;;11.84;93.01;99186.38;4979813;28;20044;-82
2021/07/06 04:04:00;;;;;;;3.83;1.38;;;;;;;11.93;93.59;99193.13;4983029;28;20038;-82
2021/07/06 04:06:25;;;;;;;3.72;1.30;;;;;;;11.89;93.24;99191.94;4980556;28;20041;-82
2021/07/06 04:08:51;;;;;;;3.67;1.60;;;;;;;11.94;93.47;99193.97;5009804;28;20022;-82
2021/07/06 04:11:16;;;;;;;2.63;1.30;;;;;;;11.97;93.68;99197.03;4993713;28;20029;-82
2021/07/06 04:13:42;;;;;;;2.83;1.30;;;;;;;11.98;93.96;99195.97;4996979;28;20513;-82
2021/07/06 04:16:07;;;;;;;4.25;1.40;;;;;;;12.00;94.12;99191.19;4995979;28;20037;-82
2021/07/06 04:18:32;;;;;;;2.67;0.98;;;;;;;11.95;93.60;99187.53;5015666;28;20034;-82
2021/07/06 04:20:58;;;;;;;2.85;1.25;;;;;;;11.95;93.83;99190.22;4992773;28;20040;-82
2021/07/06 04:23:23;;;;;;;3.45;1.50;;;;;;;11.98;94.17;99197.84;5012280;28;20029;-82
2021/07/06 04:25:49;;;;;;;3.80;1.38;;;;;;;11.97;94.24;99188.13;4979628;28;20026;-82
2021/07/06 04:28:14;;;;;;;3.67;1.25;;;;;;;11.91;94.22;99187.16;5001458;28;20061;-82
2021/07/06 04:30:40;;;;;;;5.20;1.38;;;;;;;11.94;94.04;99189.41;5014903;28;20045;-82
2021/07/06 04:33:05;;;;;;;4.85;1.40;;;;;;;11.94;94.38;99185.91;5000726;28;20037;-82
2021/07/06 04:35:30;;;;;;;5.35;1.40;;;;;;;11.88;94.21;99182.19;4978000;28;20026;-82
2021/07/06 04:37:56;;;;;;;3.15;1.25;;;;;;;11.88;94.35;99185.75;5006382;28;20371;-82
2021/07/06 04:40:21;;;;;;;2.38;1.38;;;;;;;11.86;94.30;99177.06;4998076;28;20116;-82
2021/07/06 04:42:47;;;;;;;3.40;1.30;;;;;;;11.90;94.35;99188.19;4996935;28;20029;-82
2021/07/06 04:45:15;;;;;;;5.57;1.75;;;;;;;11.88;94.39;99184.88;4990257;28;20030;-81
2021/07/06 04:47:40;;;;;;;7.65;2.05;;;;;;;11.84;94.09;99181.78;5015998;28;20060;-82
2021/07/06 04:50:09;;;;;;;4.57;1.50;;;;;;;11.81;94.06;99187.63;4995549;28;20029;-82
2021/07/06 04:52:34;;;;;;;7.10;1.90;;;;;;;11.79;94.28;99187.03;4980954;28;20108;-81
2021/07/06 04:55:00;;;;;;;5.50;1.95;;;;;;;11.71;94.13;99176.53;4991523;28;20106;-82
2021/07/06 04:57:25;;;;;;;3.35;1.65;;;;;;;11.70;94.59;99172.22;5015861;28;20045;-82
2021/07/06 04:59:51;;;;;;;4.70;1.60;;;;;;;11.66;94.16;99166.44;5010022;28;20135;-82
2021/07/06 05:02:16;;;;;;;7.45;2.10;;;;;;;11.67;94.46;99159.19;4994408;28;20485;-82
2021/07/06 05:04:42;;;;;;;6.22;2.08;;;;;;;11.64;94.50;99167.69;5011159;28;20026;-82
2021/07/06 05:07:08;;;;;;;4.70;2.25;;;;;;;11.66;94.23;99165.63;5002349;28;20033;-81
2021/07/06 05:09:35;;;;;;;5.38;2.05;;;;;;;11.66;94.61;99162.91;4983143;28;20558;-82
2021/07/06 05:12:00;;;;;;;4.88;1.70;;;;;;;11.67;94.79;99167.28;4979986;28;20479;-82
2021/07/06 05:14:25;;;;;;;4.63;1.70;;;;;;;11.56;94.74;99149.13;4997300;28;20025;-82
2021/07/06 05:16:51;;;;;;;3.85;2.10;;;;;;;11.63;94.58;99160.69;5013571;28;20022;-82
2021/07/06 05:19:16;;;;;;;4.82;2.38;;;;;;;11.55;94.92;99151.00;4994310;28;20401;-82
2021/07/06 05:21:42;;;;;;;5.50;1.70;;;;;;;11.60;94.96;99155.75;5001488;28;20056;-82
2021/07/06 05:24:08;;;;;;;8.02;1.98;;;;;;;11.63;94.92;99156.13;4981677;28;20413;-82
2021/07/06 05:26:34;;;;;;;6.68;2.28;;;;;;;11.60;95.10;99155.75;4994769;28;20026;-82
2021/07/06 05:28:59;;;;;;;4.18;2.50;;;;;;;11.54;94.97;99132.41;4988386;28;20037;-82
2021/07/06 05:31:24;;;;;;;6.35;1.67;;;;;;;11.57;95.17;99146.25;5016342;28;20021;-82
2021/07/06 05:33:50;;;;;;;5.68;1.67;;;;;;;11.64;95.12;99151.53;4980752;28;21480;-82
2021/07/06 05:36:15;;;;;;;4.05;1.63;;;;;;;11.60;95.36;99145.78;4993949;28;20037;-82
2021/07/06 05:38:41;;;;;;;4.82;2.10;;;;;;;11.59;95.38;99146.00;4978063;28;20035;-82
2021/07/06 05:41:08;;;;;;;4.95;1.67;;;;;;;11.68;95.88;99166.22;4997747;28;20664;-82
2021/07/06 05:43:33;;;;;;;4.55;1.70;;;;;;;11.64;95.56;99141.63;4994491;28;20029;-82
2021/07/06 05:45:59;;;;;;;3.13;1.60;;;;;;;11.70;95.64;99144.47;4996420;28;20029;-82
2021/07/06 05:48:24;;;;;;;5.03;2.03;;;;;;;11.74;95.18;99151.03;4980501;28;20181;-82
2021/07/06 05:50:50;;;;;;;4.88;1.60;;;;;;;11.71;95.63;99144.22;4992496;28;20057;-82
2021/07/06 05:53:15;;;;;;;4.45;1.95;;;;;;;11.73;95.48;99133.25;4979169;28;20029;-82
2021/07/06 05:55:42;;;;;;;3.78;1.35;;;;;;;11.74;95.44;99141.09;5004960;28;20506;-82
2021/07/06 05:58:08;;;;;;;5.60;1.40;;;;;;;11.78;95.69;99147.69;4980900;28;20038;-82
2021/07/06 06:00:38;;;;;;;4.88;1.70;;;;;;;11.79;95.93;99141.25;5003222;28;20026;-82
2021/07/06 06:03:07;;;;;;;3.45;1.40;;;;;;;11.81;95.74;99147.25;4975797;28;20495;-82
2021/07/06 06:05:33;;;;;;;3.10;1.58;;;;;;;11.82;95.96;99148.06;4982409;28;20030;-82
2021/07/06 06:07:58;;;;;;;3.85;1.65;;;;;;;11.88;95.87;99147.19;4997573;28;20038;-82
2021/07/06 06:10:24;;;;;;;5.25;1.80;;;;;;;11.89;95.83;99154.25;5007396;28;20029;-82
2021/07/06 06:12:49;;;;;;;3.22;1.30;;;;;;;11.91;95.97;99152.16;4993280;28;20036;-82
2021/07/06 06:15:14;;;;;;;3.85;1.40;;;;;;;12.00;96.27;99156.19;4981274;28;20022;-82
2021/07/06 06:17:41;;;;;;;2.45;1.20;;;;;;;11.99;96.03;99140.25;4993357;28;20041;-82
2021/07/06 06:20:07;;;;;;;3.97;1.30;;;;;;;12.05;95.82;99155.50;4997609;28;20038;-82
2021/07/06 06:22:33;;;;;;;2.03;1.30;;;;;;;12.08;95.89;99157.75;4987438;28;20029;-82
2021/07/06 06:24:58;;;;;;;3.50;1.38;;;;;;;12.10;96.08;99161.06;4995281;28;20081;-82
2021/07/06 06:27:24;;;;;;;6.43;1.55;;;;;;;12.09;95.93;99159.38;4989713;28;20037;-82
2021/07/06 06:29:49;;;;;;;3.13;1.40;;;;;;;12.13;95.89;99157.09;4982102;28;20060;-82
2021/07/06 06:32:16;;;;;;;2.55;1.27;;;;;;;12.23;95.83;99163.59;4997934;28;20058;-82
2021/07/06 06:34:42;;;;;;;3.58;1.20;;;;;;;12.22;95.86;99159.22;4983691;28;20030;-82
2021/07/06 06:37:08;;;;;;;4.00;1.23;;;;;;;12.15;95.68;99141.53;5000292;28;20118;-82
2021/07/06 06:39:33;;;;;;;3.70;1.45;;;;;;;12.36;96.23;99164.47;4984013;28;20454;-81
2021/07/06 06:41:58;;;;;;;2.78;0.93;;;;;;;12.34;95.74;99161.19;4991358;28;20401;-82
2021/07/06 06:44:24;;;;;;;2.65;1.20;;;;;;;12.41;96.00;99167.31;5002864;28;20141;-82
2021/07/06 06:46:49;;;;;;;2.58;1.23;;;;;;;12.46;95.91;99167.44;4986413;28;20026;-82
2021/07/06 06:49:15;;;;;;;2.90;1.17;;;;;;;12.53;96.01;99163.63;5019174;28;20108;-82
2021/07/06 06:51:40;;;;;;;3.55;2.35;;;;;;;12.57;95.97;99163.16;4980724;28;20023;-82
2021/07/06 06:54:06;;;;;;;2.90;1.10;;;;;;;12.66;95.86;99167.19;5019638;28;20033;-82
2021/07/06 06:56:31;;;;;;;4.57;1.30;;;;;;;12.73;96.06;99174.16;5003588;28;20034;-82
2021/07/06 06:58:57;;;;;;;3.38;1.33;;;;;;;12.79;95.97;99164.31;5020655;28;20030;-82
2021/07/06 07:01:23;;;;;;;6.55;1.98;;;;;;;12.83;96.09;99161.97;5002128;28;20037;-82
2021/07/06 07:03:48;;;;;;;1.90;1.17;;;;;;;12.96;95.56;99168.00;5000122;28;20010;-82
2021/07/06 07:06:14;;;;;;;2.65;1.50;;;;;;;13.01;95.87;99167.31;5008491;28;20022;-82
2021/07/06 07:08:39;;;;;;;2.85;1.30;;;;;;;13.08;95.71;99170.72;4996153;28;20025;-82
2021/07/06 07:11:04;;;;;;;2.45;1.17;;;;;;;13.13;95.54;99176.25;4993736;28;20033;-82
2021/07/06 07:13:30;;;;;;;3.78;1.40;;;;;;;13.21;95.88;99185.91;4981693;28;20125;-82
2021/07/06 07:15:56;;;;;;;4.85;1.42;;;;;;;13.03;95.55;99140.94;5000435;28;20061;-82
2021/07/06 07:18:21;;;;;;;2.45;1.30;;;;;;;13.37;95.51;99181.75;4994610;28;20034;-82
2021/07/06 07:20:47;;;;;;;3.25;1.42;;;;;;;13.48;95.62;99180.94;4995094;28;20087;-82
2021/07/06 07:23:12;;;;;;;1.70;1.00;;;;;;;13.48;95.22;99175.53;5010570;28;20030;-82
2021/07/06 07:25:38;;;;;;;2.58;1.13;;;;;;;13.60;95.23;99178.22;5007702;28;20037;-82
2021/07/06 07:28:04;;;;;;;2.53;1.23;;;;;;;13.61;94.77;99178.00;5014003;28;20030;-83
2021/07/06 07:30:30;;;;;;;4.15;1.00;;;;;;;13.70;94.64;99183.03;4994813;28;20038;-82
2021/07/06 07:32:55;;;;;;;2.17;1.20;;;;;;;13.69;94.51;99176.00;4983378;28;20041;-82
2021/07/06 07:35:21;;;;;;;3.15;1.02;;;;;;;13.79;94.00;99185.16;4989696;28;20030;-82
2021/07/06 07:37:46;;;;;;;2.00;0.90;;;;;;;13.85;93.97;99188.81;4983205;28;20025;-83
2021/07/06 07:40:13;;;;;;;1.83;0.93;;;;;;;13.95;93.49;99193.63;4987577;28;20029;-82
2021/07/06 07:42:38;;;;;;;3.60;1.30;;;;;;;13.91;93.39;99182.44;5012257;28;20026;-82
2021/07/06 07:45:05;;;;;;;1.92;1.23;;;;;;;14.06;93.02;99196.31;5003584;28;20089;-83
2021/07/06 07:47:30;;;;;;;3.08;1.20;;;;;;;14.13;92.58;99196.19;5001547;28;20038;-82
2021/07/06 07:49:56;;;;;;;1.88;1.00;;;;;;;14.19;92.57;99194.41;4993753;28;20028;-82
2021/07/06 07:52:21;;;;;;;4.30;1.40;;;;;;;14.27;92.17;99197.56;4984856;28;20044;-81
2021/07/06 07:54:47;;;;;;;3.13;1.08;;;;;;;14.27;91.85;99196.75;5012182;28;20442;-81
2021/07/06 07:57:23;;;;;;;3.35;1.20;;;;;;;14.30;91.89;99207.09;5006219;28;20034;-83
2021/07/06 07:59:49;;;;;;;2.70;1.05;;;;;;;14.40;91.67;99206.50;4992066;28;20042;-82
2021/07/06 08:02:15;;;;;;;2.88;1.17;;;;;;;14.36;91.57;99194.50;4993735;28;20052;-82
2021/07/06 08:04:40;;;;;;;3.67;1.70;;;;;;;14.41;91.83;99200.00;4966305;28;20018;-83
2021/07/06 08:07:05;;;;;;;2.63;1.27;;;;;;;14.34;91.27;99208.25;4983320;28;20041;-83
2021/07/06 08:09:31;;;;;;;4.75;1.40;;;;;;;14.39;91.05;99218.34;4996989;28;20033;-82
2021/07/06 08:11:56;;;;;;;4.50;1.63;;;;;;;14.29;90.93;99208.16;5004473;28;20022;-82
2021/07/06 08:14:22;;;;;;;6.03;1.85;;;;;;;14.25;90.87;99212.38;4989615;28;20029;-82
2021/07/06 08:16:47;;;;;;;6.05;1.85;;;;;;;14.41;90.81;99225.16;4980793;28;20545;-83
2021/07/06 08:19:13;;;;;;;3.97;1.90;;;;;;;14.51;90.83;99229.97;4989792;28;20037;-82
2021/07/06 08:21:38;;;;;;;5.07;2.10;;;;;;;14.56;90.33;99229.28;4992346;28;20021;-82
2021/07/06 08:24:04;;;;;;;3.55;1.65;;;;;;;14.67;89.98;99233.84;5013012;28;20418;-82
2021/07/06 08:26:31;;;;;;;3.00;1.65;;;;;;;14.75;89.88;99229.94;4988268;28;20034;-82
2021/07/06 08:28:57;;;;;;;4.35;1.60;;;;;;;14.80;89.30;99227.34;4994912;28;20018;-82
2021/07/06 08:31:22;;;;;;;3.60;1.85;;;;;;;14.84;89.38;99223.88;5006744;28;20061;-82
2021/07/06 08:33:48;;;;;;;3.45;1.60;;;;;;;14.88;89.15;99226.94;4981431;28;20673;-83
2021/07/06 08:36:13;;;;;;;3.47;1.58;;;;;;;14.87;88.85;99239.66;4986431;28;20029;-82
2021/07/06 08:38:40;;;;;;;4.85;1.73;;;;;;;14.82;88.98;99231.44;4994285;28;20029;-82
2021/07/06 08:41:06;;;;;;;6.93;1.85;;;;;;;14.72;89.13;99236.66;4997434;28;20030;-82
2021/07/06 08:43:32;;;;;;;4.35;2.08;;;;;;;14.64;89.25;99237.03;5005805;28;20040;-83
2021/07/06 08:46:00;;;;;;;4.28;1.75;;;;;;;14.52;89.63;99223.50;5000981;28;20033;-82
2021/07/06 08:48:27;;;;;;;6.88;2.20;;;;;;;14.54;89.43;99244.94;5022399;28;20022;-82
2021/07/06 08:50:53;;;;;;;4.85;1.95;;;;;;;14.51;89.66;99252.44;4999200;28;20022;-82
2021/07/06 08:53:18;;;;;;;3.55;1.90;;;;;;;14.46;89.82;99241.50;4988946;28;20068;-82
2021/07/06 08:55:44;;;;;;;3.17;1.60;;;;;;;14.62;89.16;99244.56;4982740;28;20422;-82
2021/07/06 08:58:09;;;;;;;2.92;1.70;;;;;;;14.79;89.04;99250.03;4996668;28;20041;-83
2021/07/06 09:00:35;;;;;;;3.97;1.75;;;;;;;14.85;88.62;99247.19;4981120;28;20087;-82
2021/07/06 09:03:03;;;;;;;3.67;2.00;;;;;;;14.93;88.67;99249.50;4997233;28;20220;-82
2021/07/06 09:05:30;;;;;;;4.70;1.60;;;;;;;15.00;88.55;99248.53;4983931;28;20474;-82
2021/07/06 09:07:56;;;;;;;3.88;2.53;;;;;;;15.04;89.07;99255.94;4978438;28;20065;-83
2021/07/06 09:10:24;;;;;;;3.58;1.60;;;;;;;15.06;88.81;99259.25;4978089;28;20034;-82
2021/07/06 09:12:49;;;;;;;4.10;1.55;;;;;;;15.08;88.83;99267.09;4990344;28;20028;-82
2021/07/06 09:15:27;;;;;;;4.07;1.60;;;;;;;15.11;88.85;99269.31;4978133;28;20109;-83
2021/07/06 09:18:05;;;;;;;2.92;1.50;;;;;;;15.21;88.72;99264.09;4989017;28;20073;-83
2021/07/06 09:20:30;;;;;;;3.47;1.35;;;;;;;15.24;88.72;99258.22;5017110;28;20084;-82
2021/07/06 09:23:21;;;;;;;1.95;1.23;;;;;;;15.33;88.55;99267.59;4980614;28;20602;-82
2021/07/06 09:25:47;;;;;;;2.42;1.30;;;;;;;15.35;88.69;99264.63;4981670;28;20117;-83
2021/07/06 09:28:23;;;;;;;3.05;1.50;;;;;;;15.42;88.63;99278.00;4982206;28;20037;-82
2021/07/06 09:30:49;;;;;;;4.50;1.48;;;;;;;15.44;88.43;99276.72;4980027;28;20707;-82
2021/07/06 09:33:28;;;;;;;2.63;1.40;;;;;;;15.43;88.45;99282.34;4968070;28;20575;-82
2021/07/06 09:35:54;;;;;;;3.40;1.45;;;;;;;15.36;88.11;99277.91;4994597;28;20098;-82
2021/07/06 09:38:20;;;;;;;2.63;1.60;;;;;;;15.39;88.10;99285.56;4993690;28;20057;-82
2021/07/06 09:40:45;;;;;;;2.67;1.58;;;;;;;15.51;88.19;99288.22;4998714;28;20482;-83
2021/07/06 09:43:28;;;;;;;3.53;1.45;;;;;;;15.72;87.54;99292.13;4982275;28;20104;-82
2021/07/06 09:46:00;;;;;;;;;;;;;;;15.94;87.40;99294.09;4984296;28;20022;-82
2021/07/06 09:48:25;;;;;;;5.00;1.42;;;;;;;15.98;86.72;99281.69;4996631;28;19957;-82
2021/07/06 09:51:18;;;;;;;3.35;1.63;;;;;;;15.94;86.37;99294.09;4991815;28;20050;-82
2021/07/06 09:53:49;;;;;;;3.60;1.80;;;;;;;15.82;86.59;99295.03;4979098;28;20030;-82
2021/07/06 09:56:16;;;;;;;4.40;1.73;;;;;;;15.75;86.94;99304.38;4981357;28;20030;-82
2021/07/06 09:58:59;;;;;;;5.05;1.75;;;;;;;15.57;86.93;99319.75;4981257;28;20505;-82
2021/07/06 10:01:25;;;;;;;3.55;1.70;;;;;;;15.32;87.29;99317.41;4986285;28;20030;-82
2021/07/06 10:03:52;;;;;;;5.35;2.40;;;;;;;15.12;87.53;99307.00;5000555;28;20379;-81
2021/07/06 10:06:20;;;;;;;4.50;2.20;;;;;;;15.08;87.67;99315.81;4983816;28;20033;-82
2021/07/06 10:08:46;;;;;;;5.65;2.55;;;;;;;15.01;87.81;99323.28;5019948;28;20049;-82
2021/07/06 10:11:11;;;;;;;5.05;2.50;;;;;;;15.00;87.80;99327.03;4997691;28;20399;-82
2021/07/06 10:13:37;;;;;;;4.85;2.58;;;;;;;14.90;87.93;99314.97;4996159;28;20405;-82
2021/07/06 10:16:04;;;;;;;5.65;2.70;;;;;;;14.86;88.16;99335.44;4999667;28;20022;-82
2021/07/06 10:18:33;;;;;;;4.35;2.60;;;;;;;14.84;88.35;99334.84;5002206;28;20113;-81
2021/07/06 10:21:03;;;;;;;4.63;2.42;;;;;;;14.82;87.78;99334.28;4988186;28;20036;-82
2021/07/06 10:23:29;;;;;;;6.53;3.30;;;;;;;14.80;88.08;99338.28;5006899;28;20094;-81
2021/07/06 10:25:57;;;;;;;8.13;4.00;;;;;;;14.72;88.17;99334.88;5019568;28;20493;-82
2021/07/06 10:28:25;;;;;;;5.45;3.03;;;;;;;14.75;88.21;99332.75;5007495;28;20087;-82
2021/07/06 10:30:51;;;;;;;9.15;3.55;;;;;;;14.73;88.32;99338.38;4980875;28;20021;-82
2021/07/06 10:33:32;;;;;;;6.05;3.13;;;;;;;14.81;88.55;99343.44;4982404;28;20022;-82
2021/07/06 10:35:58;;;;;;;5.20;3.55;;;;;;;14.83;88.45;99341.31;5017396;28;20026;-82
2021/07/06 10:38:30;;;;;;;7.88;3.67;;;;;;;14.84;88.64;99351.06;4998720;28;20387;-81
2021/07/06 10:40:58;;;;;;;7.03;3.50;;;;;;;14.85;88.78;99352.72;5016841;28;20384;-82
2021/07/06 10:43:31;;;;;;;7.85;3.80;;;;;;;14.81;88.79;99346.13;5019190;28;20022;-82
2021/07/06 10:46:14;;;;;;;7.53;3.67;;;;;;;14.80;88.70;99354.50;5007729;28;20056;-81
2021/07/06 10:48:45;;;;;;;7.45;3.88;;;;;;;14.81;89.08;99366.97;5007302;28;20184;-82
2021/07/06 10:51:37;;;;;;;7.03;4.03;;;;;;;14.73;88.89;99363.56;4998704;28;20026;-81
2021/07/06 10:54:07;;;;;;;9.35;4.90;;;;;;;14.79;89.03;99372.63;5006826;28;20117;-81
2021/07/06 10:56:43;;;;;;;8.98;4.55;;;;;;;14.73;88.68;99371.66;5001139;28;20145;-81
2021/07/06 10:59:25;;;;;;;6.93;4.80;;;;;;;14.83;88.65;99379.19;5001327;28;20033;-82
2021/07/06 11:01:59;;;;;;;11.55;4.90;;;;;;;14.77;88.71;99374.75;4999004;28;20018;-81
2021/07/06 11:04:36;;;;;;;8.77;4.63;;;;;;;14.78;88.44;99379.09;5020971;28;20022;-82
2021/07/06 11:07:16;;;;;;;11.90;5.82;;;;;;;14.76;88.61;99378.50;5007145;28;20038;-82
2021/07/06 11:09:41;;;;;;;8.65;5.05;;;;;;;14.76;88.62;99385.78;4983451;28;20057;-82
2021/07/06 11:12:21;;;;;;;12.02;6.78;;;;;;;14.68;88.95;99381.56;4978905;28;20030;-82
2021/07/06 11:15:02;;;;;;;11.05;5.97;;;;;;;14.66;88.81;99391.78;4994188;28;20167;-81
2021/07/06 11:17:35;;;;;;;12.95;5.85;;;;;;;14.61;88.96;99397.94;4980487;28;20026;-82
2021/07/06 11:20:05;;;;;;;13.68;6.40;;;;;;;14.66;89.10;99408.03;4994427;28;20057;-82
2021/07/06 11:22:56;;;;;;;10.68;5.90;;;;;;;14.68;88.59;99408.63;4991865;28;20491;-82
2021/07/06 11:25:26;;;;;;;15.40;6.70;;;;;;;14.64;88.62;99404.75;5001501;28;20030;-81
2021/07/06 11:27:56;;;;;;;9.10;6.45;;;;;;;14.72;88.36;99412.50;5019102;28;20022;-82
2021/07/06 11:30:42;;;;;;;13.90;6.72;;;;;;;14.75;88.30;99419.34;5001073;28;20029;-82
2021/07/06 11:33:10;;;;;;;10.73;6.07;;;;;;;14.78;88.07;99422.38;5015279;28;20025;-81
2021/07/06 11:35:43;;;;;;;10.30;6.63;;;;;;;14.86;88.13;99416.59;4981648;28;20076;-82
2021/07/06 11:38:16;;;;;;;;;;;;;;;14.90;88.00;99425.91;5019874;28;20037;-81
2021/07/06 11:40:44;;;;;;;10.98;6.35;;;;;;;14.91;87.49;99426.72;5006172;28;20372;-81